Time;durP1;ratioP1;P1;durP2;ratioP2;P2;SDS_P1;SDS_P2;PMS_P1;PMS_P2;Temp;Humidity;BMP_temperature;BMP_pressure;BME280_temperature;BME280_humidity;BME280_pressure;Samples;Min_cycle;Max_cycle;Signal;HPM_P1;HPM_P2
2023/08/08 00:00:22;;;;;;;2.42;1.60;;;;;;;23.42;nan;62020.41;5010866;28;20217;-66
2023/08/08 00:02:48;;;;;;;3.13;1.75;;;;;;;23.24;nan;61911.84;5011187;28;20721;-66
2023/08/08 00:05:13;;;;;;;4.43;2.05;;;;;;;23.48;nan;62009.56;5012251;28;20644;-66
2023/08/08 00:07:39;;;;;;;1.90;1.48;;;;;;;23.34;nan;62108.94;5011075;28;20180;-62
2023/08/08 00:10:05;;;;;;;2.28;1.85;;;;;;;23.46;nan;62014.53;5011005;28;20270;-65
2023/08/08 00:12:30;;;;;;;3.92;2.25;;;;;;;23.59;nan;62082.06;4994406;28;20172;-63
2023/08/08 00:14:56;;;;;;;1.73;1.50;;;;;;;23.68;nan;62094.34;5011344;28;20203;-65
2023/08/08 00:17:21;;;;;;;2.70;1.63;;;;;;;23.65;nan;62153.56;5011982;28;20184;-63
2023/08/08 00:19:46;;;;;;;2.72;1.73;;;;;;;23.44;nan;61965.91;5012299;28;20180;-64
2023/08/08 00:22:12;;;;;;;1.98;1.67;;;;;;;23.44;nan;62027.91;5011932;28;20555;-66
2023/08/08 00:24:37;;;;;;;2.17;1.50;;;;;;;23.55;nan;62082.72;5011918;28;20606;-65
2023/08/08 00:27:03;;;;;;;2.42;1.70;;;;;;;23.53;nan;62064.25;5010034;28;20192;-63
2023/08/08 00:29:29;;;;;;;4.57;1.83;;;;;;;23.40;nan;62007.69;5008903;28;20184;-66
2023/08/08 00:31:55;;;;;;;2.78;1.63;;;;;;;23.43;nan;62120.66;5011888;28;20176;-63
2023/08/08 00:34:21;;;;;;;2.30;1.90;;;;;;;23.52;nan;62055.28;5011879;28;20183;-64
2023/08/08 00:36:46;;;;;;;2.13;1.52;;;;;;;23.62;nan;62166.38;5011244;28;20188;-65
2023/08/08 00:39:11;;;;;;;1.75;1.40;;;;;;;23.50;nan;62021.69;5009696;28;20191;-63
2023/08/08 00:41:37;;;;;;;3.83;1.70;;;;;;;23.57;nan;62035.44;5010420;28;20665;-63
2023/08/08 00:44:02;;;;;;;2.10;1.83;;;;;;;23.59;nan;62118.59;5009717;28;20571;-61
2023/08/08 00:46:28;;;;;;;2.88;1.63;;;;;;;23.47;nan;61984.94;5011540;28;20265;-64
2023/08/08 00:48:54;;;;;;;2.50;1.38;;;;;;;23.23;nan;61988.91;5011990;28;20179;-64
2023/08/08 00:51:21;;;;;;;2.33;1.63;;;;;;;23.41;nan;62097.50;5014754;28;20186;-66
2023/08/08 00:53:47;;;;;;;3.05;1.60;;;;;;;23.36;nan;62032.38;5014964;28;20236;-65
2023/08/08 00:56:13;;;;;;;2.03;1.45;;;;;;;23.16;nan;62242.25;5015603;28;20250;-64
2023/08/08 00:58:40;;;;;;;2.13;1.58;;;;;;;23.36;nan;62035.00;5014639;28;20562;-64
2023/08/08 01:01:05;;;;;;;2.20;1.50;;;;;;;23.08;nan;62094.94;5014849;28;20647;-64
2023/08/08 01:03:30;;;;;;;3.13;1.30;;;;;;;23.10;nan;62086.81;5014718;28;20218;-64
2023/08/08 01:06:06;;;;;;;2.00;1.50;;;;;;;23.14;nan;62010.53;5014876;28;20226;-64
2023/08/08 01:08:39;;;;;;;2.38;1.73;;;;;;;22.93;nan;61869.38;5014752;28;20172;-65
2023/08/08 01:11:05;;;;;;;1.92;1.52;;;;;;;23.09;nan;62062.19;5014314;28;20168;-65
2023/08/08 01:13:32;;;;;;;1.77;1.50;;;;;;;23.07;nan;62017.66;5014613;28;20180;-63
2023/08/08 01:15:57;;;;;;;2.30;1.63;;;;;;;23.18;nan;61991.63;5014610;28;20224;-65
2023/08/08 01:18:24;;;;;;;1.50;1.38;;;;;;;22.95;nan;61897.13;5014448;28;20678;-64
2023/08/08 01:20:52;;;;;;;1.30;1.20;;;;;;;23.01;nan;61958.69;5014460;28;20256;-64
2023/08/08 01:23:53;;;;;;;2.05;1.30;;;;;;;23.16;nan;62038.91;5012961;28;20179;-65
2023/08/08 01:26:20;;;;;;;2.63;1.58;;;;;;;23.05;nan;61978.88;4994452;28;20191;-65
2023/08/08 01:28:46;;;;;;;1.70;1.50;;;;;;;22.90;nan;61951.97;4993939;28;20271;-63
2023/08/08 01:31:11;;;;;;;1.73;1.30;;;;;;;23.03;nan;62000.63;4994434;28;20576;-62
2023/08/08 01:33:37;;;;;;;1.30;1.10;;;;;;;23.01;nan;61976.94;4994357;28;20168;-63
2023/08/08 01:36:13;;;;;;;1.60;1.20;;;;;;;20.04;nan;61690.31;4994381;28;20227;-64
2023/08/08 01:38:44;;;;;;;2.03;1.35;;;;;;;22.51;nan;61853.50;4994241;28;20175;-65
2023/08/08 01:41:10;;;;;;;1.10;1.00;;;;;;;22.78;nan;61920.66;4992677;28;20233;-64
2023/08/08 01:43:38;;;;;;;1.02;0.93;;;;;;;22.59;nan;61964.16;4992506;28;20243;-63
2023/08/08 01:46:05;;;;;;;1.85;1.25;;;;;;;22.52;nan;61930.16;4992773;28;20165;-63
2023/08/08 01:48:31;;;;;;;1.00;1.00;;;;;;;22.58;nan;61884.88;4992644;28;20197;-63
2023/08/08 01:50:56;;;;;;;1.45;1.10;;;;;;;22.47;nan;61901.06;4992588;28;20367;-63
2023/08/08 01:53:22;;;;;;;2.53;1.30;;;;;;;22.22;nan;61979.94;4992265;28;20176;-65
2023/08/08 01:55:47;;;;;;;1.92;1.05;;;;;;;22.14;nan;61866.16;4993528;28;20645;-66
2023/08/08 01:58:12;;;;;;;1.60;1.15;;;;;;;22.40;nan;62016.03;4994662;28;20631;-65
2023/08/08 02:00:40;;;;;;;1.25;1.15;;;;;;;22.21;nan;61811.63;4993282;28;20183;-64
2023/08/08 02:03:05;;;;;;;1.20;1.10;;;;;;;22.27;nan;61901.75;4993994;28;20176;-66
2023/08/08 02:05:30;;;;;;;1.10;1.00;;;;;;;22.23;nan;61928.44;4993736;28;20655;-66
2023/08/08 02:07:56;;;;;;;1.60;1.20;;;;;;;22.12;nan;61884.69;5006804;28;20180;-66
2023/08/08 02:10:21;;;;;;;2.47;0.90;;;;;;;21.79;nan;61746.88;5013596;28;20556;-63
2023/08/08 02:12:47;;;;;;;2.80;1.30;;;;;;;22.15;nan;61873.06;5013479;28;20267;-63
2023/08/08 02:15:12;;;;;;;1.45;1.10;;;;;;;21.96;nan;61763.03;5013286;28;20750;-65
2023/08/08 02:17:38;;;;;;;1.67;1.08;;;;;;;22.33;nan;61883.13;5013403;28;20176;-65
2023/08/08 02:20:06;;;;;;;1.35;1.08;;;;;;;22.30;nan;61871.31;5013134;28;20282;-64
2023/08/08 02:22:31;;;;;;;1.48;1.00;;;;;;;22.03;nan;61828.22;5013878;28;20547;-62
2023/08/08 02:24:57;;;;;;;2.00;1.27;;;;;;;21.96;nan;62083.06;5013257;28;20184;-64
2023/08/08 02:27:22;;;;;;;1.50;1.00;;;;;;;21.83;nan;61943.34;5013132;28;20242;-63
2023/08/08 02:29:47;;;;;;;1.73;0.95;;;;;;;21.81;nan;61829.22;5012943;28;20195;-63
2023/08/08 02:32:13;;;;;;;1.05;0.90;;;;;;;21.90;nan;61847.25;5013420;28;20175;-62
2023/08/08 02:34:38;;;;;;;1.58;1.05;;;;;;;21.84;nan;62103.75;5012395;28;20172;-63
2023/08/08 02:37:04;;;;;;;1.15;1.05;;;;;;;21.75;nan;61828.19;5013753;28;20191;-62
2023/08/08 02:39:29;;;;;;;2.47;1.30;;;;;;;21.71;nan;61912.06;5012990;28;20176;-63
2023/08/08 02:41:55;;;;;;;1.55;1.20;;;;;;;21.82;nan;61796.56;5013043;28;20679;-65
2023/08/08 02:44:22;;;;;;;1.63;1.05;;;;;;;21.53;nan;61816.22;5012858;28;20168;-63
2023/08/08 02:46:47;;;;;;;1.75;1.30;;;;;;;21.57;nan;61709.50;5012625;28;20188;-62
2023/08/08 02:49:13;;;;;;;1.30;1.20;;;;;;;21.66;nan;61849.16;5012921;28;20222;-65
2023/08/08 02:51:38;;;;;;;1.20;1.10;;;;;;;21.32;nan;61740.38;5012745;28;20168;-62
2023/08/08 02:54:03;;;;;;;1.30;1.10;;;;;;;21.54;nan;61815.31;5012522;28;20317;-63
2023/08/08 02:56:29;;;;;;;1.40;1.10;;;;;;;21.41;nan;61737.59;5012662;28;20291;-64
2023/08/08 02:58:54;;;;;;;3.17;1.10;;;;;;;21.47;nan;61760.56;5012653;28;20164;-64
2023/08/08 03:01:20;;;;;;;1.50;1.40;;;;;;;21.46;nan;61686.06;5011105;28;20643;-65
2023/08/08 03:03:45;;;;;;;1.33;1.10;;;;;;;21.35;nan;61777.56;5011828;28;20174;-65
2023/08/08 03:06:11;;;;;;;2.85;1.13;;;;;;;21.57;nan;61808.31;5012545;28;20176;-66
2023/08/08 03:08:36;;;;;;;1.20;1.10;;;;;;;21.57;nan;61805.72;5012206;28;20643;-66
2023/08/08 03:11:02;;;;;;;1.73;1.40;;;;;;;21.37;nan;62019.00;5012336;28;20191;-64
2023/08/08 03:13:27;;;;;;;1.30;1.20;;;;;;;21.17;nan;61754.56;5012163;28;20650;-61
2023/08/08 03:15:52;;;;;;;1.40;1.30;;;;;;;21.14;nan;61773.06;5012264;28;20200;-65
2023/08/08 03:18:18;;;;;;;1.25;1.15;;;;;;;21.20;nan;61745.53;5010529;28;20176;-62
2023/08/08 03:20:43;;;;;;;1.48;1.15;;;;;;;21.15;nan;61769.00;5012507;28;20172;-62
2023/08/08 03:23:08;;;;;;;1.45;1.27;;;;;;;21.11;nan;61761.84;5011261;28;20176;-65
2023/08/08 03:25:34;;;;;;;2.33;1.27;;;;;;;21.04;nan;61742.94;5012363;28;20172;-63
2023/08/08 03:28:00;;;;;;;1.35;1.13;;;;;;;21.09;nan;61735.63;5012404;28;20238;-64
2023/08/08 03:30:25;;;;;;;1.50;1.17;;;;;;;20.83;nan;61885.91;5011816;28;20279;-63
2023/08/08 03:32:51;;;;;;;1.73;1.30;;;;;;;20.80;nan;61794.19;4992327;28;20692;-63
2023/08/08 03:35:16;;;;;;;1.13;1.02;;;;;;;20.72;nan;61574.78;4992507;28;20200;-62
2023/08/08 03:37:42;;;;;;;1.45;1.27;;;;;;;20.91;nan;61845.06;4992750;28;20624;-63
2023/08/08 03:40:08;;;;;;;1.77;1.15;;;;;;;20.88;nan;61665.63;5009317;28;20216;-65
2023/08/08 03:42:33;;;;;;;1.48;1.23;;;;;;;20.73;nan;61771.22;5011894;28;20212;-61
2023/08/08 03:44:59;;;;;;;1.30;1.20;;;;;;;20.82;nan;61684.78;5011735;28;20194;-64
2023/08/08 03:47:25;;;;;;;1.42;1.27;;;;;;;20.60;nan;61608.50;5011708;28;20184;-65
2023/08/08 03:49:50;;;;;;;2.63;1.40;;;;;;;20.60;nan;61685.81;5012177;28;20164;-63
2023/08/08 03:52:15;;;;;;;2.00;1.38;;;;;;;20.40;nan;61593.06;5012142;28;20188;-66
2023/08/08 03:54:41;;;;;;;1.20;1.10;;;;;;;20.69;nan;61649.28;5012270;28;20626;-62
2023/08/08 03:57:06;;;;;;;1.60;1.38;;;;;;;20.72;nan;61600.75;5012073;28;20188;-64
2023/08/08 03:59:32;;;;;;;1.65;1.50;;;;;;;21.02;nan;61805.63;5011963;28;20259;-66
2023/08/08 04:01:57;;;;;;;1.48;1.30;;;;;;;20.75;nan;61619.16;5011281;28;20172;-62
2023/08/08 04:04:23;;;;;;;2.30;1.27;;;;;;;20.71;nan;61591.84;5011972;28;20188;-66
2023/08/08 04:06:48;;;;;;;2.60;1.00;;;;;;;21.01;nan;61687.59;5011728;28;20697;-62
2023/08/08 04:09:13;;;;;;;1.48;1.27;;;;;;;20.71;nan;61690.50;5011771;28;20212;-65
2023/08/08 04:11:39;;;;;;;1.77;1.27;;;;;;;20.44;nan;61657.84;5011683;28;20173;-62
2023/08/08 04:14:04;;;;;;;2.03;1.25;;;;;;;20.33;nan;61608.50;5011733;28;20696;-61
2023/08/08 04:16:31;;;;;;;1.65;1.30;;;;;;;20.51;nan;61813.19;5010826;28;20220;-63
2023/08/08 04:18:56;;;;;;;1.65;1.15;;;;;;;20.25;nan;61603.13;5008662;28;20258;-65
2023/08/08 04:21:23;;;;;;;2.50;1.50;;;;;;;20.09;nan;61499.41;5008662;28;20611;-64
2023/08/08 04:23:48;;;;;;;1.65;1.40;;;;;;;19.97;nan;61467.72;5010216;28;20211;-66
2023/08/08 04:26:14;;;;;;;1.55;1.30;;;;;;;20.19;nan;61499.78;5013813;28;20199;-65
2023/08/08 04:28:40;;;;;;;1.85;1.33;;;;;;;19.97;nan;61275.25;5014351;28;20223;-65
2023/08/08 04:31:05;;;;;;;1.90;1.40;;;;;;;19.99;nan;61314.34;5009704;28;20239;-66
2023/08/08 04:33:31;;;;;;;1.55;1.40;;;;;;;19.86;nan;61338.59;5013484;28;20188;-64
2023/08/08 04:35:56;;;;;;;1.95;1.60;;;;;;;19.59;nan;61036.56;5012339;28;20216;-64
2023/08/08 04:38:21;;;;;;;1.50;1.40;;;;;;;19.41;nan;60855.72;5013749;28;21127;-64
2023/08/08 04:40:47;;;;;;;2.42;1.75;;;;;;;19.38;nan;60619.78;5014018;28;20176;-64
2023/08/08 04:43:12;;;;;;;1.45;1.35;;;;;;;19.48;nan;60117.50;5014314;28;20636;-63
2023/08/08 04:45:38;;;;;;;2.20;1.60;;;;;;;19.46;nan;59876.44;5014709;28;20172;-62
2023/08/08 04:48:03;;;;;;;2.05;1.58;;;;;;;19.38;nan;59537.22;5013541;28;20196;-62
2023/08/08 04:50:29;;;;;;;2.83;1.40;;;;;;;19.41;nan;58721.78;5013842;28;20199;-63
2023/08/08 04:52:54;;;;;;;2.30;1.58;;;;;;;19.14;nan;58557.94;5014687;28;20195;-63
2023/08/08 04:55:19;;;;;;;1.65;1.50;;;;;;;19.26;nan;57337.13;5013815;28;20279;-63
2023/08/08 04:57:45;;;;;;;1.48;1.35;;;;;;;19.19;nan;57818.63;5014172;28;20183;-63
2023/08/08 05:00:11;;;;;;;1.52;1.42;;;;;;;19.11;nan;56553.06;5011054;28;20376;-63
2023/08/08 05:02:39;;;;;;;2.10;1.63;;;;;;;19.25;nan;57656.88;5009669;28;20183;-63
2023/08/08 05:05:05;;;;;;;1.73;1.48;;;;;;;19.04;nan;57274.97;5010824;28;20171;-63
2023/08/08 05:07:30;;;;;;;2.30;1.67;;;;;;;19.30;nan;57198.53;5007093;28;20186;-63
2023/08/08 05:09:55;;;;;;;3.35;1.70;;;;;;;19.19;nan;56669.56;5013601;28;20188;-62
2023/08/08 05:12:21;;;;;;;1.60;1.50;;;;;;;19.00;nan;56176.97;5012741;28;20628;-61
2023/08/08 05:14:46;;;;;;;1.80;1.50;;;;;;;19.13;nan;55782.00;5014034;28;20294;-63
2023/08/08 05:17:14;;;;;;;3.10;1.60;;;;;;;19.14;nan;54935.09;5013005;28;20283;-63
2023/08/08 05:19:39;;;;;;;2.13;1.70;;;;;;;19.02;nan;53080.63;5012879;28;20200;-62
2023/08/08 05:22:05;;;;;;;1.95;1.60;;;;;;;19.11;nan;53853.81;4999869;28;20180;-65
2023/08/08 05:24:30;;;;;;;2.20;1.70;;;;;;;18.96;nan;54635.00;5010659;28;20176;-62
2023/08/08 05:26:56;;;;;;;1.98;1.77;;;;;;;19.12;nan;53531.84;5013101;28;20237;-62
2023/08/08 05:29:22;;;;;;;2.42;1.70;;;;;;;18.84;nan;49715.31;5012899;28;20219;-62
2023/08/08 05:31:47;;;;;;;2.35;1.63;;;;;;;18.85;nan;53425.31;5012469;28;20263;-62
2023/08/08 05:34:13;;;;;;;2.70;1.85;;;;;;;18.80;nan;53247.31;5012743;28;20617;-63
2023/08/08 05:36:39;;;;;;;7.22;3.00;;;;;;;19.14;nan;56979.84;5012836;28;20771;-65
2023/08/08 05:39:06;;;;;;;3.33;2.05;;;;;;;19.58;nan;59462.28;5012680;28;20237;-64
2023/08/08 05:41:32;;;;;;;3.20;1.75;;;;;;;19.23;nan;59375.78;5012163;28;20715;-62
2023/08/08 05:43:57;;;;;;;3.03;1.80;;;;;;;19.00;nan;59657.97;5011816;28;20176;-67
2023/08/08 05:46:23;;;;;;;2.65;1.88;;;;;;;19.05;nan;59475.09;5011417;28;20176;-63
2023/08/08 05:48:48;;;;;;;2.92;1.75;;;;;;;18.89;nan;59116.56;5013059;28;20632;-61
2023/08/08 05:51:14;;;;;;;2.20;1.80;;;;;;;19.15;nan;59446.69;5013368;28;20165;-63
2023/08/08 05:53:39;;;;;;;2.67;1.80;;;;;;;19.15;nan;59752.69;5013605;28;20269;-61
2023/08/08 05:56:04;;;;;;;2.17;1.77;;;;;;;19.00;nan;59580.88;5013345;28;20705;-63
2023/08/08 05:58:30;;;;;;;2.60;1.90;;;;;;;19.23;nan;59758.94;5013839;28;20164;-62
2023/08/08 06:00:55;;;;;;;2.88;2.00;;;;;;;19.03;nan;59943.94;5012824;28;20196;-65
2023/08/08 06:03:21;;;;;;;2.95;2.00;;;;;;;18.93;nan;59524.00;5013592;28;20187;-64
2023/08/08 06:05:46;;;;;;;2.47;1.85;;;;;;;18.83;nan;59560.13;5014080;28;20192;-63
2023/08/08 06:08:13;;;;;;;2.58;1.88;;;;;;;18.76;nan;59009.25;5012270;28;20194;-62
2023/08/08 06:10:38;;;;;;;3.30;2.05;;;;;;;18.81;nan;58851.22;5013001;28;20658;-63
2023/08/08 06:13:04;;;;;;;2.50;2.00;;;;;;;18.85;nan;57674.19;5012822;28;20253;-62
2023/08/08 06:15:29;;;;;;;4.82;2.10;;;;;;;18.89;nan;56440.03;5012702;28;20199;-63
2023/08/08 06:17:55;;;;;;;3.17;2.20;;;;;;;18.89;nan;55144.66;5013121;28;20183;-62
2023/08/08 06:20:21;;;;;;;3.50;2.22;;;;;;;18.90;nan;56184.63;5013145;28;20170;-63
2023/08/08 06:22:46;;;;;;;3.58;2.22;;;;;;;18.86;nan;57359.81;5013076;28;20188;-62
2023/08/08 06:25:12;;;;;;;2.70;2.17;;;;;;;19.29;nan;58732.03;5012862;28;20179;-65
2023/08/08 06:27:37;;;;;;;2.63;2.10;;;;;;;19.32;nan;58914.47;5012373;28;20302;-63
2023/08/08 06:30:03;;;;;;;3.47;2.47;;;;;;;19.44;nan;59775.81;5012756;28;20275;-62
2023/08/08 06:32:28;;;;;;;2.75;2.20;;;;;;;19.48;nan;60409.66;5013503;28;20183;-63
2023/08/08 06:34:55;;;;;;;4.18;2.45;;;;;;;19.44;nan;60527.50;5012910;28;20195;-63
2023/08/08 06:37:20;;;;;;;3.03;2.30;;;;;;;19.46;nan;60373.75;5012860;28;20187;-65
2023/08/08 06:39:45;;;;;;;2.97;2.35;;;;;;;19.60;nan;59788.84;5012934;28;20577;-63
2023/08/08 06:42:11;;;;;;;2.92;2.30;;;;;;;19.71;nan;59870.91;5013063;28;20190;-62
2023/08/08 06:44:42;;;;;;;2.97;2.10;;;;;;;19.71;nan;59277.06;5012178;28;20671;-65
2023/08/08 06:47:08;;;;;;;2.97;2.38;;;;;;;19.66;nan;59626.50;5008103;28;20180;-64
2023/08/08 06:49:33;;;;;;;4.43;2.80;;;;;;;19.52;nan;59448.47;5011471;28;20183;-64
2023/08/08 06:51:59;;;;;;;3.15;2.38;;;;;;;19.97;nan;59753.94;5012034;28;20195;-62
2023/08/08 06:54:24;;;;;;;3.55;2.42;;;;;;;20.11;nan;60085.13;5011262;28;20192;-63
2023/08/08 06:56:50;;;;;;;2.95;2.42;;;;;;;20.37;nan;60998.03;5011165;28;20247;-62
2023/08/08 06:59:15;;;;;;;4.20;2.70;;;;;;;20.57;nan;61228.16;5011329;28;20179;-63
2023/08/08 07:01:40;;;;;;;3.88;2.70;;;;;;;20.58;nan;60996.22;5010971;28;20180;-64
2023/08/08 07:04:07;;;;;;;3.78;2.60;;;;;;;20.80;nan;61502.78;5007585;28;20249;-62
2023/08/08 07:06:32;;;;;;;3.88;2.83;;;;;;;20.85;nan;61322.03;5011720;28;20577;-63
2023/08/08 07:08:58;;;;;;;6.00;2.92;;;;;;;21.08;nan;61326.63;5011764;28;20195;-62
2023/08/08 07:11:24;;;;;;;3.85;2.40;;;;;;;21.18;nan;61176.25;5011664;28;20267;-62
2023/08/08 07:13:50;;;;;;;3.47;2.55;;;;;;;20.82;nan;61609.47;5010592;28;20346;-64
2023/08/08 07:16:15;;;;;;;3.72;2.63;;;;;;;21.15;nan;61571.53;5010732;28;20219;-63
2023/08/08 07:18:40;;;;;;;3.55;2.63;;;;;;;21.22;nan;61378.22;5011696;28;20214;-63
2023/08/08 07:21:06;;;;;;;5.78;3.72;;;;;;;21.31;nan;61311.00;5010851;28;20184;-64
2023/08/08 07:23:31;;;;;;;2.88;2.53;;;;;;;21.47;nan;61500.59;5008693;28;20230;-62
2023/08/08 07:25:57;;;;;;;2.75;2.33;;;;;;;21.81;nan;61829.78;5011277;28;20176;-64
2023/08/08 07:28:23;;;;;;;3.42;2.55;;;;;;;21.96;nan;61742.22;5011493;28;20243;-64
2023/08/08 07:30:48;;;;;;;3.28;2.38;;;;;;;22.39;nan;61806.03;5011450;28;20198;-64
2023/08/08 07:33:14;;;;;;;2.95;2.20;;;;;;;22.75;nan;61875.56;5012154;28;20188;-63
2023/08/08 07:35:39;;;;;;;3.25;2.35;;;;;;;22.99;nan;61909.50;5010750;28;20207;-62
2023/08/08 07:38:05;;;;;;;3.00;2.20;;;;;;;23.16;nan;61968.50;5010541;28;20192;-62
2023/08/08 07:40:31;;;;;;;2.75;2.10;;;;;;;22.90;nan;62046.34;5010557;28;20281;-63
2023/08/08 07:42:56;;;;;;;2.42;2.00;;;;;;;22.94;nan;61955.94;5011841;28;20195;-63
2023/08/08 07:45:21;;;;;;;2.67;2.45;;;;;;;22.68;nan;62031.72;5011941;28;20313;-64
2023/08/08 07:47:47;;;;;;;2.47;2.08;;;;;;;22.65;nan;62053.78;5012384;28;20262;-65
2023/08/08 07:50:12;;;;;;;2.13;1.92;;;;;;;22.59;nan;61935.50;5011888;28;20172;-64
2023/08/08 07:52:38;;;;;;;2.10;1.90;;;;;;;22.15;nan;61979.22;5011969;28;20195;-62
2023/08/08 07:55:05;;;;;;;2.28;2.00;;;;;;;22.32;nan;62014.75;5011593;28;20283;-64
2023/08/08 07:57:34;;;;;;;2.33;1.98;;;;;;;22.18;nan;61978.00;5011611;28;20190;-64
2023/08/08 08:00:05;;;;;;;2.63;2.08;;;;;;;21.12;nan;63456.97;5014113;28;20176;-64
2023/08/08 08:02:30;;;;;;;2.92;2.33;;;;;;;22.33;nan;61867.50;5015600;28;20553;-62
2023/08/08 08:04:55;;;;;;;3.00;2.40;;;;;;;22.51;nan;61916.00;5015645;28;20176;-65
2023/08/08 08:07:21;;;;;;;2.78;2.30;;;;;;;22.79;nan;62132.28;5014381;28;20183;-63
2023/08/08 08:09:46;;;;;;;2.70;2.15;;;;;;;22.81;nan;62077.22;5015520;28;20212;-65
2023/08/08 08:12:11;;;;;;;3.03;2.40;;;;;;;23.05;nan;61974.25;5015450;28;20168;-63
2023/08/08 08:14:37;;;;;;;2.53;2.20;;;;;;;21.43;nan;63487.84;5015852;28;20183;-64
2023/08/08 08:17:03;;;;;;;3.17;2.25;;;;;;;23.32;nan;62051.88;5015590;28;20631;-63
2023/08/08 08:19:28;;;;;;;2.75;2.30;;;;;;;23.19;nan;62067.81;5015621;28;20164;-62
2023/08/08 08:21:54;;;;;;;3.38;2.20;;;;;;;23.14;nan;61986.50;5015604;28;20184;-64
2023/08/08 08:24:20;;;;;;;2.60;2.22;;;;;;;22.86;nan;62054.25;5015254;28;20207;-61
2023/08/08 08:26:45;;;;;;;2.58;2.20;;;;;;;23.12;nan;62018.13;5013747;28;20230;-62
2023/08/08 08:29:10;;;;;;;2.08;1.88;;;;;;;23.00;nan;61975.81;5015171;28;20227;-63
2023/08/08 08:31:37;;;;;;;2.83;2.13;;;;;;;22.79;nan;61885.34;5014939;28;20164;-63
2023/08/08 08:34:03;;;;;;;2.80;2.03;;;;;;;22.90;nan;61884.78;5014952;28;20176;-62
2023/08/08 08:36:28;;;;;;;2.00;1.65;;;;;;;23.06;nan;62100.50;5014960;28;20199;-62
2023/08/08 08:38:54;;;;;;;2.90;1.95;;;;;;;23.54;nan;62075.81;5014948;28;20678;-64
2023/08/08 08:41:21;;;;;;;1.92;1.73;;;;;;;23.44;nan;62048.75;5014663;28;20176;-62
2023/08/08 08:43:48;;;;;;;2.28;1.95;;;;;;;23.31;nan;62003.22;5014709;28;20187;-63
2023/08/08 08:46:19;;;;;;;2.00;1.70;;;;;;;23.22;nan;62037.31;5014932;28;20215;-62
2023/08/08 08:48:45;;;;;;;1.75;1.63;;;;;;;23.61;nan;62047.81;5014704;28;20176;-65
2023/08/08 08:51:11;;;;;;;2.63;1.95;;;;;;;23.69;nan;62056.34;5014459;28;20280;-64
2023/08/08 08:53:39;;;;;;;2.05;1.60;;;;;;;23.72;nan;62057.72;5014569;28;20190;-63
2023/08/08 08:56:05;;;;;;;2.00;1.55;;;;;;;23.75;nan;62172.78;5014407;28;20211;-63
2023/08/08 08:58:30;;;;;;;2.00;1.80;;;;;;;23.88;nan;62220.97;5014106;28;20242;-63
2023/08/08 09:00:58;;;;;;;2.20;1.90;;;;;;;23.96;nan;62091.72;5014632;28;20267;-64
2023/08/08 09:03:24;;;;;;;2.00;1.80;;;;;;;23.96;nan;62207.16;5014761;28;20179;-63
2023/08/08 09:05:52;;;;;;;1.85;1.65;;;;;;;24.16;nan;62149.06;5014640;28;20200;-63
2023/08/08 09:08:17;;;;;;;1.70;1.60;;;;;;;24.04;nan;62129.56;5014347;28;20177;-64
2023/08/08 09:10:43;;;;;;;3.83;1.77;;;;;;;24.25;nan;62187.47;5014102;28;20175;-63
2023/08/08 09:13:08;;;;;;;1.90;1.70;;;;;;;24.25;nan;62252.19;5014335;28;20184;-65
2023/08/08 09:15:34;;;;;;;2.20;1.60;;;;;;;24.67;nan;62291.72;5014242;28;20188;-64
2023/08/08 09:18:01;;;;;;;1.83;1.65;;;;;;;24.69;nan;62194.69;5014379;28;20561;-64
2023/08/08 09:20:28;;;;;;;1.98;1.60;;;;;;;24.89;nan;62342.97;5014230;28;20187;-66
2023/08/08 09:22:53;;;;;;;1.80;1.55;;;;;;;;;;5013945;28;20180;-63
2023/08/08 09:25:19;;;;;;;2.05;1.85;;;;;;;25.60;nan;62344.47;5014594;28;20255;-64
2023/08/08 09:27:45;;;;;;;1.90;1.65;;;;;;;25.27;nan;62276.50;5014162;28;20220;-62
2023/08/08 09:30:11;;;;;;;2.20;1.98;;;;;;;25.33;nan;62413.63;5014236;28;20642;-63
2023/08/08 09:32:37;;;;;;;2.15;1.95;;;;;;;25.49;nan;62432.47;5014325;28;20275;-62
2023/08/08 09:35:03;;;;;;;2.63;1.83;;;;;;;25.57;nan;62325.34;5014334;28;20195;-64
2023/08/08 09:37:28;;;;;;;2.30;1.90;;;;;;;25.67;nan;62430.97;5013834;28;20180;-63
2023/08/08 09:40:03;;;;;;;2.72;2.20;;;;;;;25.97;nan;62407.66;5014062;28;20179;-63
2023/08/08 09:42:29;;;;;;;1.80;1.70;;;;;;;26.08;nan;62365.19;5013716;28;20220;-63
2023/08/08 09:44:59;;;;;;;2.00;1.70;;;;;;;26.02;nan;62515.53;5013858;28;20255;-65
2023/08/08 09:47:30;;;;;;;2.58;1.95;;;;;;;25.91;nan;62375.19;5013106;28;20706;-62
2023/08/08 09:49:59;;;;;;;1.98;1.70;;;;;;;25.62;nan;62357.78;5011445;28;20172;-65
2023/08/08 09:52:27;;;;;;;4.70;1.60;;;;;;;25.63;nan;62351.06;5013344;28;20180;-62
2023/08/08 09:54:53;;;;;;;1.60;1.23;;;;;;;25.90;nan;62412.75;5014157;28;20198;-63
2023/08/08 09:57:19;;;;;;;1.60;1.50;;;;;;;25.95;nan;62368.69;4994526;28;20185;-65
2023/08/08 09:59:47;;;;;;;1.60;1.50;;;;;;;26.35;nan;62545.44;4999471;28;20639;-64
2023/08/08 10:02:14;;;;;;;1.65;1.55;;;;;;;26.36;nan;62420.19;5013642;28;20207;-65
2023/08/08 10:04:41;;;;;;;1.65;1.50;;;;;;;26.64;nan;62511.94;5013381;28;20545;-65
2023/08/08 10:07:06;;;;;;;1.73;1.58;;;;;;;26.43;nan;62533.06;5013686;28;20172;-61
2023/08/08 10:09:33;;;;;;;1.63;1.40;;;;;;;26.38;nan;62417.25;5012791;28;20183;-63
2023/08/08 10:12:00;;;;;;;1.73;1.38;;;;;;;26.22;nan;62428.38;5012878;28;20183;-63
2023/08/08 10:14:32;;;;;;;1.60;1.50;;;;;;;26.28;nan;62437.84;5013294;28;20579;-66
2023/08/08 10:16:58;;;;;;;1.50;1.40;;;;;;;26.37;nan;62562.88;5013071;28;20269;-65
2023/08/08 10:19:23;;;;;;;1.52;1.40;;;;;;;26.55;nan;62350.16;5013618;28;20168;-63
2023/08/08 10:21:57;;;;;;;2.55;2.00;;;;;;;26.40;nan;62563.72;5011480;28;20184;-64
2023/08/08 10:24:22;;;;;;;1.67;1.40;;;;;;;26.68;nan;62606.22;5013170;28;20188;-65
2023/08/08 10:26:57;;;;;;;1.85;1.40;;;;;;;26.89;nan;62522.19;5012838;28;20186;-62
2023/08/08 10:29:24;;;;;;;2.10;1.50;;;;;;;27.15;nan;62551.94;5013192;28;20171;-64
2023/08/08 10:32:04;;;;;;;2.00;1.52;;;;;;;27.32;nan;62664.75;5012430;28;20176;-64
2023/08/08 10:34:42;;;;;;;1.70;1.30;;;;;;;27.62;nan;62720.13;5012801;28;20187;-65
2023/08/08 10:37:12;;;;;;;1.98;1.42;;;;;;;27.85;nan;62625.66;5013495;28;20218;-67
2023/08/08 10:39:50;;;;;;;1.88;1.50;;;;;;;28.19;nan;62700.25;4993769;28;20166;-63
2023/08/08 10:42:19;;;;;;;1.58;1.30;;;;;;;27.55;nan;62565.06;5006202;28;20190;-69
2023/08/08 10:44:54;;;;;;;1.88;1.48;;;;;;;27.89;nan;62771.53;5012921;28;20184;-65
2023/08/08 10:47:31;;;;;;;1.48;1.20;;;;;;;27.97;nan;62741.31;4993294;28;20669;-65
2023/08/08 10:50:03;;;;;;;1.40;1.30;;;;;;;28.34;nan;62654.94;4999232;28;20215;-63
2023/08/08 10:52:29;;;;;;;3.45;1.40;;;;;;;28.47;nan;62850.69;5012264;28;20663;-62
2023/08/08 10:54:54;;;;;;;1.88;1.50;;;;;;;27.59;nan;62685.19;5012335;28;20176;-63
2023/08/08 10:57:20;;;;;;;2.45;1.70;;;;;;;28.03;nan;62648.31;5012400;28;20183;-66
2023/08/08 10:59:45;;;;;;;5.30;2.55;;;;;;;28.38;nan;62725.25;5012932;28;20238;-66
2023/08/08 11:02:12;;;;;;;2.50;1.60;;;;;;;28.71;nan;62746.16;5012865;28;20183;-64
2023/08/08 11:04:39;;;;;;;1.63;1.23;;;;;;;27.92;nan;62691.50;5012659;28;20175;-65
2023/08/08 11:07:05;;;;;;;2.00;1.50;;;;;;;27.74;nan;62691.88;5012129;28;20180;-64
2023/08/08 11:09:30;;;;;;;3.35;1.23;;;;;;;27.75;nan;62729.78;5012460;28;20175;-66
2023/08/08 11:11:55;;;;;;;1.55;1.30;;;;;;;27.80;nan;62748.09;5012415;28;20180;-63
2023/08/08 11:14:22;;;;;;;2.15;1.60;;;;;;;28.18;nan;62689.19;5012496;28;20179;-63
2023/08/08 11:16:49;;;;;;;1.80;1.50;;;;;;;27.82;nan;62711.56;5012153;28;20683;-64
2023/08/08 11:19:22;;;;;;;5.15;1.90;;;;;;;28.09;nan;62731.97;5012068;28;20167;-64
2023/08/08 11:21:48;;;;;;;2.80;1.55;;;;;;;28.22;nan;62725.31;5012601;28;20164;-63
2023/08/08 11:24:15;;;;;;;1.95;1.52;;;;;;;28.13;nan;62704.47;5012293;28;20168;-63
2023/08/08 11:26:45;;;;;;;2.33;1.75;;;;;;;27.92;nan;62649.44;5012084;28;20207;-65
2023/08/08 11:29:11;;;;;;;2.20;1.73;;;;;;;28.28;nan;62784.19;5010532;28;20235;-66
2023/08/08 11:31:37;;;;;;;2.08;1.73;;;;;;;28.24;nan;62832.75;5012142;28;20190;-63
2023/08/08 11:34:09;;;;;;;3.60;1.95;;;;;;;28.46;nan;62842.22;5011979;28;20174;-66
2023/08/08 11:36:36;;;;;;;2.40;1.55;;;;;;;28.52;nan;62743.34;5011672;28;20296;-64
2023/08/08 11:39:08;;;;;;;2.00;1.70;;;;;;;28.26;nan;62708.28;5011263;28;20183;-62
2023/08/08 11:41:34;;;;;;;2.97;1.67;;;;;;;28.30;nan;62752.31;5012238;28;20193;-63
2023/08/08 11:44:01;;;;;;;1.85;1.55;;;;;;;27.88;nan;62597.00;5010883;28;20613;-62
2023/08/08 11:46:27;;;;;;;1.83;1.42;;;;;;;27.90;nan;62785.81;5011880;28;20274;-63